SGAS/ASU METAR and TAF weather

Enter ICAO airport designator
Station Type Date Time Source
SGAS METAR 2020/04/05 22:00 UTC NOAA

SGAS 052200Z 06005KT 9000 FEW033 BKN080 33/19 Q1007


Station Type Date Time Source
SGAS Decoded METAR 2020/04/05 22:00 UTC NOAA

Asuncion / Aeropuerto, Paraguay (SGAS) 25-16S 057-38W 101M
Apr 05, 2020 - 06:00 PM EDT / 2020.04.05 2200 UTC
Wind: from the ENE (060 degrees) at 6 MPH (5 KT):0
Visibility: 5 mile(s):0
Sky conditions: mostly cloudy
Temperature: 91 F (33 C)
Dew Point: 66 F (19 C)
Relative Humidity: 43%
Pressure (altimeter): 29.74 in. Hg (1007 hPa)
ob: SGAS 052200Z 06005KT 9000 FEW033 BKN080 33/19 Q1007
cycle: 22

Station Type Date Time Source
SGAS TAF 2020/04/05 18:58 UTC NOAA

TAF SGAS 051655Z 0518/0618 36015KT CAVOK TX35/0518Z TN22/0609Z
BECMG 0519/0522 02010KT 9999 SCT027
BECMG 0523/0602 05006KT 9999 BKN027
BECMG 0603/0606 VRB08KT 9999 -RA BKN020 PROB40 0609/0612 24015KT 6000 TSRA BKN0020 FEW040CB 0615/0618 18010KT 8000 -RA BKN015

Example: see airport list